Latest Weather Observations for Charles Point

IDD60801

Issued at 1:11 am CST Saturday 29 February 2020 (issued every 10 minutes, with the page automatically refreshed every 10 minutes)

About weather observations | Map of weather stations | Latest weather observations for NT | Other Formats
Station Details ID: 014031 Name: CHARLES POINT Lat: -12.39 Lon: 130.63 Height: 14.0 m
Data from the previous 72 hours. | See also: Recent months for locations in Northern Territory
Date/Time
CST
Temp
°C
App
Temp
°C
Dew
Point
°C
Rel
Hum
%
Delta-T
°C
Wind Press
QNH
hPa
Press
MSL
hPa
Rain since
9am
mm
Dir  Spd
km/h
Gust
km/h
Spd
kts
Gust
kts
29/01:00am 27.7 31.4 25.7 89 1.4 N 17 20 9 11 1007.2 1007.0 3.8
29/12:30am 26.9 30.3 26.2 96 0.5 N 20 26 11 14 1007.2 1007.0 3.8
29/12:00am 28.1 32.8 26.7 92 1.0 N 15 20 8 11 1007.6 1007.4 3.8
 
Date/Time
CST
Temp
°C
App
Temp
°C
Dew
Point
°C
Rel
Hum
%
Delta-T
°C
Wind Press
QNH
hPa
Press
MSL
hPa
Rain since
9am
mm
Dir  Spd
km/h
Gust
km/h
Spd
kts
Gust
kts
28/11:30pm 27.6 33.0 27.1 97 0.4 N 13 17 7 9 1007.7 1007.5 3.8
28/11:00pm 27.1 30.4 26.6 97 0.4 N 22 28 12 15 1007.7 1007.5 3.8
28/10:30pm 28.4 33.2 26.8 91 1.1 NNW 15 26 8 14 1007.5 1007.3 3.6
28/10:00pm 27.7 32.4 26.1 91 1.1 NW 13 20 7 11 1007.3 1007.1 3.6
28/09:30pm 28.2 32.3 25.8 87 1.7 NNW 15 22 8 12 1006.7 1006.5 3.2
28/09:00pm 28.6 33.5 27.0 91 1.2 N 15 22 8 12 1006.3 1006.1 3.2
28/08:30pm 27.6 33.3 26.5 94 0.8 NE 9 15 5 8 1006.0 1005.8 2.8
28/08:00pm 28.4 33.3 26.4 89 1.4 NNW 13 20 7 11 1005.6 1005.4 2.8
28/07:30pm 27.5 34.0 26.8 96 0.5 N 6 13 3 7 1005.0 1004.8 2.8
28/07:00pm 26.5 29.4 26.0 97 0.4 NW 22 30 12 16 1005.0 1004.8 2.2
28/06:30pm 28.9 33.4 26.9 89 1.4 N 17 19 9 10 1004.2 1004.0 0.4
28/06:00pm 28.8 33.2 26.8 89 1.4 N 17 20 9 11 1004.0 1003.8 0.4
28/05:30pm 28.6 32.2 26.4 88 1.6 N 20 24 11 13 1003.7 1003.5 0.4
28/05:00pm 28.8 32.0 27.0 90 1.3 N 24 28 13 15 1003.9 1003.7 0.4
28/04:30pm 28.2 31.7 26.8 92 1.0 N 22 30 12 16 1004.1 1003.9 0.4
28/04:00pm 28.6 30.8 26.6 89 1.4 N 28 35 15 19 1004.0 1003.8 0.4
28/03:30pm 28.9 31.5 26.7 88 1.6 N 26 32 14 17 1003.7 1003.5 0.4
28/03:00pm 28.8 32.0 27.0 90 1.3 N 24 30 13 16 1004.0 1003.8 0.4
28/02:30pm 28.1 31.3 26.5 91 1.1 N 22 28 12 15 1004.4 1004.2 0.4
28/02:00pm 27.5 30.5 26.1 92 1.0 N 22 30 12 16 1004.7 1004.5 0.4
28/01:30pm 26.9 26.7 26.2 96 0.5 N 39 46 21 25 1004.6 1004.4 0.4
28/01:00pm 28.0 28.8 25.6 87 1.7 N 32 46 17 25 1005.1 1004.9 0.2
28/12:30pm 28.6 30.5 26.8 90 1.3 N 30 35 16 19 1005.1 1004.9 0.2
28/12:00pm 28.6 30.4 26.6 89 1.4 N 30 35 16 19 1005.7 1005.5 0.2
28/11:30am 28.7 30.3 26.9 90 1.3 N 32 37 17 20 1005.8 1005.6 0.2
28/11:00am 28.8 31.7 27.6 93 0.9 N 28 35 15 19 1006.0 1005.8 0.2
28/10:30am 28.4 31.7 27.2 93 0.9 NNE 24 33 13 18 1006.3 1006.1 0.0
28/10:00am 28.5 31.8 27.6 95 0.7 N 26 32 14 17 1006.1 1005.9 0.0
28/09:30am 28.4 31.6 27.5 95 0.7 N 26 32 14 17 1006.0 1005.8 0.0
28/09:00am 28.5 32.8 28.0 97 0.4 N 22 26 12 14 1005.8 1005.6 5.2
28/08:30am 28.0 30.5 27.1 95 0.6 N 28 35 15 19 1005.2 1005.0 3.4
28/08:00am 29.4 33.4 27.0 87 1.7 N 20 32 11 17 1004.7 1004.5 3.2
28/07:30am 28.9 32.0 26.3 86 1.9 NNW 22 35 12 19 1004.5 1004.3 3.2
28/07:00am 29.6 32.9 26.6 84 2.1 NW 22 33 12 18 1004.3 1004.1 3.2
28/06:30am 29.4 31.8 26.4 84 2.1 NNW 26 37 14 20 1004.0 1003.8 3.2
28/06:00am 29.3 33.1 26.7 86 1.9 NW 20 30 11 16 1003.2 1003.0 3.2
28/05:30am 29.3 33.0 26.3 84 2.1 NW 19 30 10 16 1003.0 1002.8 3.2
28/05:00am 29.3 32.9 26.5 85 2.0 NW 20 32 11 17 1003.1 1002.9 3.2
28/04:30am 29.1 32.2 26.3 85 2.0 NW 22 32 12 17 1003.1 1002.9 3.2
28/04:00am 29.1 31.2 25.9 83 2.3 NW 26 37 14 20 1002.8 1002.6 3.2
28/03:30am 28.9 31.8 25.9 84 2.1 NW 22 32 12 17 1002.5 1002.4 3.2
28/03:00am 28.9 31.4 25.9 84 2.1 NW 24 32 13 17 1002.5 1002.4 3.2
28/02:30am 29.3 31.3 26.3 84 2.1 NW 28 35 15 19 1003.0 1002.8 3.2
28/02:00am 28.9 33.8 26.9 89 1.4 WNW 15 20 8 11 1003.2 1003.0 3.2
28/01:30am 29.3 31.7 26.3 84 2.1 WNW 26 35 14 19 1003.2 1003.0 3.2
28/01:00am 28.9 31.5 26.7 88 1.6 NW 26 35 14 19 1003.4 1003.2 3.2
28/12:30am 28.6 31.7 27.4 93 0.9 NW 26 35 14 19 1003.6 1003.4 3.0
28/12:00am 28.3 30.5 27.2 94 0.8 WNW 30 41 16 22 1004.0 1003.8 3.0
 
Date/Time
CST
Temp
°C
App
Temp
°C
Dew
Point
°C
Rel
Hum
%
Delta-T
°C
Wind Press
QNH
hPa
Press
MSL
hPa
Rain since
9am
mm
Dir  Spd
km/h
Gust
km/h
Spd
kts
Gust
kts
27/11:30pm 28.4 32.1 27.2 93 0.9 W 22 37 12 20 1004.4 1004.2 2.2
27/11:18pm 29.1 31.9 26.9 88 1.6 WNW 26 43 14 23 1004.3 1004.1 1.8
27/11:00pm 30.2 30.8 26.8 82 2.4 NW 37 52 20 28 1004.1 1003.9 1.8
27/10:30pm 30.1 30.9 26.5 81 2.6 NW 35 50 19 27 1003.9 1003.7 1.8
27/10:00pm 30.1 30.5 26.5 81 2.6 WNW 37 46 20 25 1003.9 1003.7 1.8
27/09:30pm 30.2 30.3 26.6 81 2.6 WNW 39 52 21 28 1003.5 1003.3 1.8
27/09:00pm 30.3 30.2 26.9 82 2.5 NW 41 54 22 29 1003.2 1003.0 1.8
27/08:30pm 30.3 31.5 27.1 83 2.3 WNW 35 46 19 25 1002.6 1002.5 1.8
27/08:00pm 30.1 30.9 27.1 84 2.2 WNW 37 50 20 27 1002.4 1002.3 1.8
27/07:30pm 30.1 30.9 27.1 84 2.2 WNW 37 54 20 29 1002.5 1002.4 1.8
27/07:00pm 30.2 31.1 27.2 84 2.2 WNW 37 48 20 26 1002.0 1001.9 1.8
27/06:30pm 30.1 31.2 26.9 83 2.3 WNW 35 48 19 26 1001.6 1001.5 1.8
27/06:00pm 30.3 31.1 27.1 83 2.3 WNW 37 46 20 25 1001.3 1001.2 1.8
27/05:30pm 30.4 31.1 27.0 82 2.5 WNW 37 50 20 27 1001.1 1001.0 1.8
27/05:00pm 30.5 31.4 27.3 83 2.3 WNW 37 50 20 27 1001.3 1001.2 1.8
27/04:30pm 29.6 31.0 27.4 88 1.6 WNW 35 48 19 26 1001.3 1001.2 1.8
27/04:00pm 29.9 31.5 27.7 88 1.6 WNW 35 44 19 24 1001.5 1001.4 1.6
27/03:34pm 29.5 31.1 26.9 86 1.9 WNW 32 56 17 30 1001.6 1001.5 0.8
27/03:30pm 29.4 30.6 26.6 85 2.0 WNW 33 46 18 25 1001.8 1001.7 0.8
27/03:00pm 30.3 32.0 27.3 84 2.2 WNW 33 43 18 23 1001.9 1001.8 0.8
27/02:30pm 30.0 32.0 27.4 86 1.9 WNW 32 43 17 23 1002.1 1002.0 0.8
27/02:00pm 29.8 30.9 27.0 85 2.0 WNW 35 48 19 26 1002.3 1002.2 0.8
27/01:30pm 29.9 31.8 26.7 83 2.3 WNW 30 41 16 22 1003.1 1002.9 0.8
27/01:00pm 29.8 31.1 26.4 82 2.4 WNW 32 41 17 22 1003.3 1003.1 0.8
27/12:30pm 29.4 30.5 26.4 84 2.1 WNW 33 43 18 23 1003.9 1003.7 0.6
27/12:00pm 29.5 30.6 26.9 86 1.9 WNW 35 48 19 26 1004.3 1004.1 0.6
27/11:30am 29.1 30.5 26.9 88 1.6 WNW 33 46 18 25 1004.7 1004.5 0.6
27/11:00am 29.1 30.3 26.5 86 1.9 WNW 33 50 18 27 1004.2 1004.0 0.6
27/10:41am 28.8 30.5 26.4 87 1.7 W 30 48 16 26 1004.2 1004.0 0.6
27/10:30am 28.8 29.4 26.2 86 1.9 WNW 35 52 19 28 1003.9 1003.7 0.6
27/10:07am 29.7 30.8 27.5 88 1.6 WNW 37 56 20 30 1003.7 1003.5 0.2
27/10:00am 29.9 31.9 27.7 88 1.6 WNW 33 46 18 25 1004.1 1003.9 0.0
27/09:30am 28.6 32.3 27.2 92 1.0 W 22 37 12 20 1004.2 1004.0 0.0
27/09:00am 26.6 27.7 26.1 97 0.4 WNW 32 43 17 23 1004.1 1003.9 44.8
27/08:44am 26.3 27.9 25.8 97 0.4 W 28 57 15 31 1004.4 1004.2 39.0
27/08:43am 26.5 28.7 26.0 97 0.4 W 26 57 14 31 1004.4 1004.2 37.2
27/08:30am 28.1 34.2 27.6 97 0.4 W 11 19 6 10 1003.7 1003.5 23.8
27/08:00am 26.6 29.2 26.1 97 0.4 W 24 43 13 23 1003.8 1003.6 23.8
27/07:30am 25.1 28.8 24.6 97 0.3 SW 13 28 7 15 1003.8 1003.6 23.4
27/07:00am 25.1 28.1 24.6 97 0.3 SW 17 35 9 19 1005.4 1005.2 11.2
27/06:59am 25.2 28.2 24.7 97 0.3 SW 17 35 9 19 1005.6 1005.4 10.0
27/06:44am 27.9 28.5 24.7 83 2.2 W 30 50 16 27 1003.6 1003.4 1.0
27/06:30am 30.1 30.0 26.3 80 2.7 WNW 39 56 21 30 1003.2 1003.0 1.0
27/06:00am 30.0 29.3 26.6 82 2.4 WNW 43 52 23 28 1002.4 1002.3 1.0
27/05:30am 29.9 29.9 27.1 85 2.0 WNW 41 50 22 27 1002.3 1002.2 1.0
27/05:02am 29.8 30.5 27.0 85 2.0 WNW 37 57 20 31 1002.4 1002.3 0.0
27/05:00am 29.9 30.6 26.9 84 2.2 WNW 37 50 20 27 1002.3 1002.2 0.0
27/04:30am 29.8 29.9 26.6 83 2.3 WNW 39 50 21 27 1002.4 1002.3 0.0
27/04:00am 30.0 29.6 26.4 81 2.6 WNW 41 57 22 31 1001.9 1001.8 0.0
27/03:30am 29.9 30.3 26.5 82 2.4 WNW 37 52 20 28 1002.2 1002.1 0.0
27/03:00am 30.0 30.1 26.6 82 2.4 WNW 39 54 21 29 1002.3 1002.2 0.0
27/02:30am 30.0 29.6 26.4 81 2.6 WNW 41 56 22 30 1002.4 1002.3 0.0
27/02:00am 29.9 30.2 26.3 81 2.6 WNW 37 50 20 27 1003.3 1003.1 0.0
27/01:30am 30.0 30.1 26.6 82 2.4 WNW 39 52 21 28 1003.3 1003.1 0.0
27/01:00am 30.1 29.5 26.1 79 2.8 WNW 41 54 22 29 1004.0 1003.8 0.0
27/12:30am 30.1 30.0 26.3 80 2.7 WNW 39 54 21 29 1004.5 1004.3 0.0
27/12:00am 30.1 30.4 26.3 80 2.7 WNW 37 54 20 29 1004.2 1004.0 0.0
 
Date/Time
CST
Temp
°C
App
Temp
°C
Dew
Point
°C
Rel
Hum
%
Delta-T
°C
Wind Press
QNH
hPa
Press
MSL
hPa
Rain since
9am
mm
Dir  Spd
km/h
Gust
km/h
Spd
kts
Gust
kts
26/11:30pm 30.1 31.2 26.9 83 2.3 WNW 35 48 19 26 1004.8 1004.6 0.0
26/11:00pm 30.2 31.7 27.0 83 2.3 WNW 33 44 18 24 1005.1 1004.9 0.0
26/10:30pm 30.3 30.3 26.5 80 2.7 WNW 39 50 21 27 1004.7 1004.5 0.0
26/10:00pm 30.4 31.0 26.3 79 2.9 WNW 35 46 19 25 1004.6 1004.4 0.0
26/09:30pm 30.4 32.5 27.0 82 2.5 WNW 30 43 16 23 1005.0 1004.8 0.0
26/09:00pm 30.4 32.0 26.8 81 2.6 WNW 32 39 17 21 1004.4 1004.2 0.0
26/08:30pm 30.4 31.7 27.2 83 2.3 WNW 35 50 19 27 1003.7 1003.5 0.0
26/08:20pm 30.3 32.2 26.7 81 2.6 WNW 30 48 16 26 1003.6 1003.4 0.0
26/08:00pm 30.3 31.5 26.5 80 2.7 WNW 33 46 18 25 1003.0 1002.8 0.0
26/07:30pm 30.2 31.1 26.1 79 2.9 WNW 33 52 18 28 1002.9 1002.7 0.0
26/07:00pm 30.3 31.7 26.9 82 2.4 WNW 33 44 18 24 1002.8 1002.6 0.0
26/06:30pm 30.5 32.7 26.7 80 2.7 WNW 28 48 15 26 1002.8 1002.6 0.0
26/06:17pm 30.4 32.2 26.1 78 3.1 W 28 46 15 25 1002.5 1002.4 0.0
26/06:00pm 30.5 32.0 26.2 78 3.1 W 30 44 16 24 1002.5 1002.4 0.0
26/05:47pm 30.6 32.6 26.3 78 3.1 W 28 48 15 26 1002.4 1002.3 0.0
26/05:30pm 30.6 33.1 26.5 79 2.9 W 26 41 14 22 1002.5 1002.4 0.0
26/05:11pm 30.8 33.2 26.9 80 2.8 W 28 48 15 26 1002.6 1002.5 0.0
26/05:00pm 31.0 32.9 26.7 78 3.1 W 30 46 16 25 1002.6 1002.5 0.0
26/04:30pm 31.5 33.9 26.3 74 3.7 W 26 39 14 21 1002.6 1002.5 0.0
26/04:00pm 31.5 35.9 27.6 80 2.8 W 20 37 11 20 1002.9 1002.7 0.0
26/03:30pm 31.6 33.9 27.3 78 3.1 W 30 43 16 23 1002.5 1002.4 0.0
26/03:00pm 31.8 34.6 27.0 76 3.5 W 26 39 14 21 1002.8 1002.6 0.0
26/02:30pm 31.6 35.5 27.5 79 3.0 W 22 37 12 20 1003.1 1002.9 0.0
26/02:00pm 31.4 34.4 27.3 79 3.0 WNW 26 44 14 24 1003.6 1003.4 0.0
26/01:30pm 31.3 34.0 27.4 80 2.8 WNW 28 44 15 24 1003.8 1003.6 0.0
26/01:00pm 31.6 35.3 27.7 80 2.8 W 24 35 13 19 1004.3 1004.1 0.0
26/12:30pm 31.2 35.0 27.3 80 2.8 W 22 37 12 20 1004.8 1004.6 0.0
26/12:00pm 31.5 36.2 28.0 82 2.6 W 20 35 11 19 1005.3 1005.1 0.0
26/11:30am 31.1 34.9 27.9 83 2.3 WNW 24 39 13 21 1005.7 1005.5 0.0
26/11:00am 30.4 34.4 27.6 85 2.0 WNW 22 33 12 18 1006.0 1005.8 0.0
26/10:30am 30.6 34.8 27.4 83 2.3 W 20 33 11 18 1006.2 1006.0 0.0
26/10:00am 30.4 34.8 27.4 84 2.2 W 19 32 10 17 1006.2 1006.0 0.0
26/09:30am 30.3 34.3 27.1 83 2.3 W 20 32 11 17 1006.1 1005.9 0.0
26/09:00am 30.2 33.3 27.4 85 2.0 WNW 26 37 14 20 1005.7 1005.5 0.0
26/08:30am 30.2 32.9 27.4 85 2.0 WNW 28 39 15 21 1005.3 1005.1 0.0
26/08:00am 30.0 32.5 27.0 84 2.2 WNW 28 43 15 23 1005.1 1004.9 0.0
26/07:30am 30.0 31.6 27.2 85 2.0 WNW 33 43 18 23 1004.7 1004.5 0.0
26/07:00am 29.9 31.5 27.1 85 2.0 WNW 33 43 18 23 1004.5 1004.3 0.0
26/06:30am 29.9 32.0 27.1 85 2.0 WNW 30 41 16 22 1004.2 1004.0 0.0
26/06:00am 30.0 32.6 27.2 85 2.0 WNW 28 43 15 23 1004.1 1003.9 0.0
26/05:30am 29.9 32.6 27.3 86 1.9 WNW 28 44 15 24 1004.0 1003.8 0.0
26/05:00am 29.8 32.0 27.2 86 1.9 WNW 30 39 16 21 1003.7 1003.5 0.0
26/04:30am 29.7 32.2 27.1 86 1.9 WNW 28 37 15 20 1003.8 1003.6 0.0
26/04:00am 29.7 32.3 26.7 84 2.2 WNW 26 37 14 20 1004.1 1003.9 0.0
26/03:30am 29.8 33.1 26.6 83 2.3 WNW 22 33 12 18 1004.5 1004.3 0.0
26/03:00am 29.8 33.4 26.4 82 2.4 W 20 32 11 17 1004.7 1004.5 0.0
26/02:30am 29.8 32.6 26.4 82 2.4 W 24 33 13 18 1004.9 1004.7 0.0
26/02:00am 29.8 32.4 26.6 83 2.3 WNW 26 37 14 20 1005.2 1005.0 0.0
26/01:30am 29.9 32.4 26.5 82 2.4 WNW 26 39 14 21 1005.7 1005.5 0.0

Other formats

Comma delimited format used in spreadsheet applications
http://www.bom.gov.au/fwo/IDD60801/IDD60801.99510.axf

JavaScript Object Notation format (JSON) in row-major order
http://www.bom.gov.au/fwo/IDD60801/IDD60801.99510.json

Data quality

Most of these data are generated automatically and are frequently updated. Quality checks on data are not normally performed. It is possible for incorrect values to appear. Refer to information at About Latest Weather Observations and please check the disclaimer before using these data.